Time;durP1;ratioP1;P1;durP2;ratioP2;P2;SDS_P1;SDS_P2;PMS_P1;PMS_P2;Temp;Humidity;BMP_temperature;BMP_pressure;BME280_temperature;BME280_humidity;BME280_pressure;Samples;Min_cycle;Max_cycle;Signal;HPM_P1;HPM_P2
2023/12/16 00:00:19;;;;;;;22.92;9.63;;;8.60;84.50;;;;;;5000952;28;20322;-69
2023/12/16 00:02:45;;;;;;;28.88;9.70;;;8.60;84.30;;;;;;4996940;28;20108;-70
2023/12/16 00:05:10;;;;;;;22.77;8.80;;;8.60;84.40;;;;;;4996864;28;20073;-70
2023/12/16 00:07:36;;;;;;;19.70;8.73;;;8.60;84.40;;;;;;5002498;28;20021;-71
2023/12/16 00:10:02;;;;;;;19.17;8.90;;;8.60;84.40;;;;;;5003040;28;20053;-73
2023/12/16 00:12:27;;;;;;;21.75;9.98;;;8.60;84.30;;;;;;4993912;28;20038;-70
2023/12/16 00:14:53;;;;;;;23.98;10.27;;;8.60;84.30;;;;;;5000433;28;20407;-71
2023/12/16 00:17:19;;;;;;;22.83;9.55;;;8.60;84.40;;;;;;5001259;28;20037;-70
2023/12/16 00:19:45;;;;;;;23.50;9.15;;;8.60;84.50;;;;;;4983618;28;20026;-70
2023/12/16 00:22:10;;;;;;;24.20;9.50;;;8.60;84.60;;;;;;4974944;28;20076;-71
2023/12/16 00:24:36;;;;;;;24.08;9.10;;;8.60;84.60;;;;;;4973569;28;20034;-73
2023/12/16 00:27:02;;;;;;;18.50;8.70;;;8.60;84.70;;;;;;4983540;28;20049;-70
2023/12/16 00:29:28;;;;;;;19.70;9.15;;;8.60;84.80;;;;;;4990227;28;20042;-72
2023/12/16 00:31:54;;;;;;;14.68;8.10;;;8.60;84.80;;;;;;4989091;28;20034;-71
2023/12/16 00:34:19;;;;;;;25.17;9.55;;;8.60;84.90;;;;;;4985501;28;20034;-70
2023/12/16 00:36:45;;;;;;;20.63;9.20;;;8.60;85.00;;;;;;4993386;28;20038;-71
2023/12/16 00:39:11;;;;;;;19.92;8.55;;;8.60;84.90;;;;;;4992907;28;20054;-71
2023/12/16 00:41:37;;;;;;;22.50;9.65;;;8.60;85.10;;;;;;4997952;28;20459;-72
2023/12/16 00:44:03;;;;;;;20.92;9.55;;;8.60;85.00;;;;;;4993335;28;20033;-70
2023/12/16 00:46:29;;;;;;;17.65;8.63;;;8.60;85.10;;;;;;4986143;28;20026;-70
2023/12/16 00:48:54;;;;;;;19.42;7.78;;;8.50;85.20;;;;;;4994258;28;20441;-72
2023/12/16 00:51:20;;;;;;;17.42;8.63;;;8.50;85.20;;;;;;4971953;28;20253;-71
2023/12/16 00:53:46;;;;;;;18.98;8.43;;;8.50;85.20;;;;;;4994066;28;20058;-72
2023/12/16 00:56:12;;;;;;;20.02;8.35;;;8.50;85.30;;;;;;4984036;28;20042;-71
2023/12/16 00:58:38;;;;;;;17.95;7.55;;;8.50;85.20;;;;;;4986926;28;20067;-71
2023/12/16 01:01:04;;;;;;;19.42;8.45;;;8.50;85.30;;;;;;4985669;28;20030;-71
2023/12/16 01:03:29;;;;;;;18.60;7.25;;;8.40;85.30;;;;;;4988152;28;20031;-71
2023/12/16 01:05:55;;;;;;;20.23;7.70;;;8.40;85.40;;;;;;4984480;28;20042;-72
2023/12/16 01:08:21;;;;;;;19.27;7.00;;;8.40;85.40;;;;;;4967751;28;20108;-72
2023/12/16 01:10:46;;;;;;;17.33;6.93;;;8.30;85.70;;;;;;4980362;28;20038;-72
2023/12/16 01:13:12;;;;;;;15.88;6.85;;;8.30;85.70;;;;;;4970404;28;20065;-72
2023/12/16 01:15:38;;;;;;;17.40;6.28;;;8.30;85.70;;;;;;4992796;28;20038;-71
2023/12/16 01:18:04;;;;;;;18.90;7.07;;;8.30;85.80;;;;;;4988352;28;20464;-71
2023/12/16 01:20:30;;;;;;;20.33;6.43;;;8.30;85.80;;;;;;4981633;28;20051;-72
2023/12/16 01:22:55;;;;;;;16.83;6.28;;;8.20;85.90;;;;;;5000952;28;20492;-74
2023/12/16 01:25:21;;;;;;;18.00;6.63;;;8.30;85.90;;;;;;4987303;28;20026;-71
2023/12/16 01:27:48;;;;;;;21.25;6.15;;;8.30;85.80;;;;;;5005023;28;20018;-71
2023/12/16 01:30:14;;;;;;;19.95;7.22;;;8.30;85.70;;;;;;5002781;28;20030;-70
2023/12/16 01:32:39;;;;;;;18.02;6.25;;;8.30;85.90;;;;;;4988357;28;20517;-71
2023/12/16 01:35:05;;;;;;;15.23;6.55;;;8.20;85.90;;;;;;4986846;28;20042;-72
2023/12/16 01:37:31;;;;;;;16.55;5.82;;;8.20;86.10;;;;;;5003769;28;20033;-70
2023/12/16 01:39:59;;;;;;;17.83;6.40;;;8.20;86.10;;;;;;5001398;28;20026;-72
2023/12/16 01:42:25;;;;;;;18.83;6.22;;;8.20;86.20;;;;;;5000804;28;20053;-73
2023/12/16 01:44:50;;;;;;;14.38;5.68;;;8.20;86.20;;;;;;5004686;28;20034;-71
2023/12/16 01:47:17;;;;;;;16.02;5.80;;;8.10;86.20;;;;;;5001687;28;20052;-73
2023/12/16 01:49:44;;;;;;;14.25;5.20;;;8.10;86.20;;;;;;4987060;28;20037;-72
2023/12/16 01:52:11;;;;;;;17.30;5.55;;;8.10;86.10;;;;;;4974173;28;20054;-71
2023/12/16 01:54:38;;;;;;;12.75;4.72;;;8.10;86.00;;;;;;4997073;28;20030;-71
2023/12/16 01:57:04;;;;;;;16.92;4.90;;;7.90;86.20;;;;;;4976449;28;20806;-71
2023/12/16 01:59:30;;;;;;;17.17;5.55;;;7.90;86.20;;;;;;4983382;28;20593;-71
2023/12/16 02:01:57;;;;;;;13.95;5.43;;;7.90;86.20;;;;;;5001890;28;20128;-71
2023/12/16 02:04:23;;;;;;;14.57;5.05;;;7.90;86.10;;;;;;5004379;28;20054;-73
2023/12/16 02:06:50;;;;;;;19.10;5.70;;;7.90;86.10;;;;;;5003561;28;20076;-71
2023/12/16 02:09:18;;;;;;;18.27;4.90;;;7.80;86.10;;;;;;4983471;28;20548;-70
2023/12/16 02:11:44;;;;;;;17.27;5.10;;;7.80;86.10;;;;;;5001451;28;20074;-70
2023/12/16 02:14:10;;;;;;;17.02;5.05;;;7.80;86.20;;;;;;4999367;28;20125;-71
2023/12/16 02:16:36;;;;;;;14.75;4.97;;;7.70;86.30;;;;;;5003561;28;20459;-71
2023/12/16 02:19:09;;;;;;;16.90;5.10;;;7.60;86.50;;;;;;4996728;28;20153;-72
2023/12/16 02:21:35;;;;;;;18.90;4.78;;;7.70;86.50;;;;;;4983999;28;20057;-70
2023/12/16 02:24:01;;;;;;;20.88;5.65;;;7.60;86.40;;;;;;4999639;28;20026;-71
2023/12/16 02:26:27;;;;;;;20.27;5.35;;;7.60;86.50;;;;;;5000911;28;21411;-72
2023/12/16 02:28:52;;;;;;;12.52;4.50;;;7.50;86.70;;;;;;5000079;28;20390;-73
2023/12/16 02:31:18;;;;;;;14.05;4.93;;;7.50;86.80;;;;;;5004228;28;20066;-71
2023/12/16 02:33:45;;;;;;;18.23;5.28;;;7.50;86.80;;;;;;5004929;28;20052;-70
2023/12/16 02:36:11;;;;;;;13.07;4.35;;;7.40;86.80;;;;;;5002521;28;20061;-71
2023/12/16 02:38:37;;;;;;;14.98;4.65;;;7.40;87.00;;;;;;5002215;28;20022;-72
2023/12/16 02:41:03;;;;;;;14.10;4.90;;;7.40;87.10;;;;;;5003039;28;20141;-72
2023/12/16 02:43:29;;;;;;;18.15;4.03;;;7.30;87.20;;;;;;4983364;28;20057;-72
2023/12/16 02:45:54;;;;;;;14.35;4.50;;;7.30;87.40;;;;;;4981707;28;20035;-71
2023/12/16 02:48:20;;;;;;;16.10;4.68;;;7.30;87.40;;;;;;4992158;28;20022;-73
2023/12/16 02:50:46;;;;;;;18.52;6.00;;;7.30;87.40;;;;;;5009266;28;20558;-71
2023/12/16 02:53:12;;;;;;;15.85;5.10;;;7.20;87.40;;;;;;4980853;28;20506;-71
2023/12/16 02:55:38;;;;;;;19.10;5.30;;;7.20;87.50;;;;;;4983399;28;20074;-73
2023/12/16 02:58:04;;;;;;;13.85;4.72;;;7.20;87.60;;;;;;5001707;28;20022;-71
2023/12/16 03:00:29;;;;;;;14.10;4.40;;;7.10;87.60;;;;;;5000808;28;20029;-72
2023/12/16 03:02:55;;;;;;;20.77;5.03;;;7.10;87.70;;;;;;4993356;28;20026;-71
2023/12/16 03:05:21;;;;;;;19.45;4.70;;;7.10;87.80;;;;;;4998135;28;20034;-71
2023/12/16 03:07:47;;;;;;;16.58;4.78;;;7.10;88.00;;;;;;4993054;28;20026;-73
2023/12/16 03:10:12;;;;;;;15.68;5.00;;;7.10;87.90;;;;;;4997947;28;20075;-70
2023/12/16 03:12:38;;;;;;;15.82;4.70;;;7.10;87.90;;;;;;4977000;28;20128;-71
2023/12/16 03:15:04;;;;;;;18.13;5.13;;;7.10;88.00;;;;;;5000791;28;20080;-72
2023/12/16 03:17:30;;;;;;;19.50;5.25;;;7.10;88.10;;;;;;4999980;28;20022;-72
2023/12/16 03:19:56;;;;;;;15.35;5.03;;;7.10;88.10;;;;;;4998195;28;20030;-72
2023/12/16 03:22:22;;;;;;;15.50;4.60;;;7.10;88.10;;;;;;4997651;28;20078;-71
2023/12/16 03:24:47;;;;;;;15.40;4.63;;;7.10;88.10;;;;;;4982127;28;20471;-70
2023/12/16 03:27:13;;;;;;;13.43;4.55;;;7.10;88.00;;;;;;4998262;28;20100;-73
2023/12/16 03:29:39;;;;;;;17.15;5.40;;;7.10;88.00;;;;;;4984907;28;20045;-72
2023/12/16 03:32:05;;;;;;;18.52;5.63;;;7.10;88.00;;;;;;4977224;28;20109;-72
2023/12/16 03:34:32;;;;;;;13.43;4.82;;;7.10;88.10;;;;;;4997828;28;20048;-71
2023/12/16 03:36:59;;;;;;;18.05;6.15;;;7.10;88.10;;;;;;4976923;28;20335;-71
2023/12/16 03:39:25;;;;;;;20.25;6.05;;;7.20;88.10;;;;;;4996710;28;20026;-71
2023/12/16 03:41:51;;;;;;;16.83;6.10;;;7.20;88.00;;;;;;4979547;28;20088;-71
2023/12/16 03:44:16;;;;;;;16.23;5.97;;;7.30;87.90;;;;;;5000269;28;20180;-71
2023/12/16 03:46:42;;;;;;;19.38;6.47;;;7.40;87.90;;;;;;5001010;28;20038;-73
2023/12/16 03:49:08;;;;;;;19.13;5.53;;;7.40;87.90;;;;;;5000908;28;20025;-71
2023/12/16 03:51:34;;;;;;;17.73;5.75;;;7.40;87.90;;;;;;4982029;28;20391;-72
2023/12/16 03:53:59;;;;;;;15.57;5.68;;;7.50;87.70;;;;;;5001196;28;20493;-71
2023/12/16 03:56:26;;;;;;;17.88;5.88;;;7.50;87.60;;;;;;5001633;28;20030;-71
2023/12/16 03:58:51;;;;;;;18.27;5.32;;;7.50;87.60;;;;;;5001956;28;20147;-71
2023/12/16 04:01:17;;;;;;;16.33;5.20;;;7.60;87.60;;;;;;5001513;28;20377;-71
2023/12/16 04:03:43;;;;;;;17.42;5.78;;;7.60;87.70;;;;;;5002573;28;20034;-71
2023/12/16 04:06:12;;;;;;;15.63;5.10;;;7.60;87.50;;;;;;4999642;28;20394;-73
2023/12/16 04:08:39;;;;;;;17.88;5.75;;;7.70;87.40;;;;;;4977407;28;20617;-70
2023/12/16 04:11:06;;;;;;;15.10;5.43;;;7.80;87.20;;;;;;4999384;28;20500;-70
2023/12/16 04:13:32;;;;;;;18.95;5.85;;;7.80;87.00;;;;;;4984789;28;20483;-72
2023/12/16 04:15:58;;;;;;;16.80;5.85;;;7.80;87.10;;;;;;4999807;28;20117;-70
2023/12/16 04:18:23;;;;;;;17.77;5.28;;;7.80;87.10;;;;;;4998571;28;20105;-70
2023/12/16 04:20:49;;;;;;;17.88;5.28;;;7.80;87.00;;;;;;4998047;28;20470;-72
2023/12/16 04:23:14;;;;;;;18.00;4.95;;;7.80;87.10;;;;;;5002287;28;20177;-71
2023/12/16 04:25:40;;;;;;;17.10;5.30;;;7.70;87.20;;;;;;4991826;28;20061;-70
2023/12/16 04:28:06;;;;;;;14.48;6.22;;;7.60;87.40;;;;;;4998549;28;20023;-71
2023/12/16 04:30:32;;;;;;;13.70;5.50;;;7.60;87.50;;;;;;4995364;28;20033;-70
2023/12/16 04:32:58;;;;;;;20.65;5.30;;;7.60;87.70;;;;;;5001308;28;20113;-70
2023/12/16 04:35:23;;;;;;;16.17;5.57;;;7.50;87.90;;;;;;5000197;28;20068;-73
2023/12/16 04:37:49;;;;;;;20.58;5.60;;;7.50;88.10;;;;;;5002137;28;20410;-70
2023/12/16 04:40:15;;;;;;;17.08;5.10;;;7.40;88.30;;;;;;4994917;28;20034;-71
2023/12/16 04:42:42;;;;;;;19.33;6.10;;;7.40;88.40;;;;;;4978802;28;20022;-70
2023/12/16 04:45:08;;;;;;;15.35;5.82;;;7.30;88.60;;;;;;4994349;28;20042;-71
2023/12/16 04:47:36;;;;;;;15.88;5.15;;;7.30;88.70;;;;;;5000509;28;20038;-71
2023/12/16 04:50:03;;;;;;;14.15;5.45;;;7.30;88.80;;;;;;5001548;28;20041;-70
2023/12/16 04:52:28;;;;;;;17.90;6.47;;;7.20;89.00;;;;;;5005921;28;20374;-71
2023/12/16 04:54:54;;;;;;;17.65;6.20;;;7.20;89.10;;;;;;4997995;28;20068;-71
2023/12/16 04:57:19;;;;;;;20.67;6.90;;;7.20;89.30;;;;;;5004165;28;20168;-71
2023/12/16 04:59:46;;;;;;;18.02;6.25;;;7.20;89.30;;;;;;4999379;28;20393;-73
2023/12/16 05:02:11;;;;;;;19.10;5.82;;;7.20;89.30;;;;;;5000710;28;20030;-71
2023/12/16 05:04:37;;;;;;;20.52;5.25;;;7.20;89.40;;;;;;4998592;28;20037;-71
2023/12/16 05:07:03;;;;;;;16.15;5.82;;;7.20;89.40;;;;;;4998092;28;20128;-72
2023/12/16 05:09:28;;;;;;;20.95;5.70;;;7.10;89.50;;;;;;4992482;28;20029;-72
2023/12/16 05:11:54;;;;;;;17.50;5.88;;;7.10;89.60;;;;;;4991865;28;20034;-73
2023/12/16 05:14:20;;;;;;;16.48;5.85;;;7.20;89.70;;;;;;5001305;28;20118;-71
2023/12/16 05:16:46;;;;;;;14.55;5.22;;;7.20;89.70;;;;;;4983491;28;20109;-73
2023/12/16 05:19:12;;;;;;;14.65;4.97;;;7.20;89.70;;;;;;5005546;28;20033;-74
2023/12/16 05:21:39;;;;;;;16.38;5.22;;;7.20;89.70;;;;;;4994729;28;20050;-72
2023/12/16 05:24:04;;;;;;;15.95;5.57;;;7.10;89.80;;;;;;5000415;28;20044;-73
2023/12/16 05:26:30;;;;;;;17.92;6.07;;;7.10;89.90;;;;;;4983811;28;20375;-73
2023/12/16 05:28:56;;;;;;;18.85;4.97;;;7.10;90.10;;;;;;4998867;28;20054;-72
2023/12/16 05:31:21;;;;;;;16.42;5.35;;;7.10;90.10;;;;;;4999567;28;20031;-72
2023/12/16 05:33:47;;;;;;;16.45;5.65;;;7.10;90.10;;;;;;5004220;28;20386;-71
2023/12/16 05:36:13;;;;;;;20.40;5.43;;;7.10;90.30;;;;;;5004736;28;20159;-72
2023/12/16 05:38:38;;;;;;;19.27;5.35;;;7.10;90.40;;;;;;5006574;28;20378;-74
2023/12/16 05:41:04;;;;;;;13.32;4.57;;;7.10;90.50;;;;;;5001195;28;20069;-72
2023/12/16 05:43:30;;;;;;;18.00;5.80;;;7.10;90.60;;;;;;5001505;28;20045;-71
2023/12/16 05:45:55;;;;;;;17.08;5.72;;;7.30;90.60;;;;;;4999793;28;20049;-71
2023/12/16 05:48:21;;;;;;;16.40;5.90;;;7.30;90.50;;;;;;4986953;28;20037;-72
2023/12/16 05:50:47;;;;;;;21.27;6.53;;;7.40;90.50;;;;;;5002584;28;20117;-72
2023/12/16 05:53:12;;;;;;;17.98;5.82;;;7.40;90.40;;;;;;4975369;28;20425;-71
2023/12/16 05:55:39;;;;;;;14.38;5.32;;;7.40;90.40;;;;;;4982964;28;20046;-71
2023/12/16 05:58:04;;;;;;;17.13;5.57;;;7.50;90.40;;;;;;5003785;28;20026;-71
2023/12/16 06:00:30;;;;;;;22.23;5.30;;;7.50;90.40;;;;;;5002006;28;20025;-72
2023/12/16 06:02:55;;;;;;;15.77;5.40;;;7.50;90.40;;;;;;5000191;28;20049;-73
2023/12/16 06:05:22;;;;;;;18.35;5.53;;;7.60;90.40;;;;;;4979513;28;20100;-70
2023/12/16 06:07:48;;;;;;;16.50;5.30;;;7.60;90.30;;;;;;5004625;28;20069;-71
2023/12/16 06:10:13;;;;;;;20.83;5.90;;;7.60;90.40;;;;;;4985167;28;20065;-72
2023/12/16 06:12:39;;;;;;;22.85;5.85;;;7.60;90.40;;;;;;5003417;28;20022;-73
2023/12/16 06:15:05;;;;;;;23.73;5.22;;;7.60;90.40;;;;;;4985695;28;20081;-71
2023/12/16 06:17:31;;;;;;;18.58;5.75;;;7.60;90.40;;;;;;5000304;28;20022;-71
2023/12/16 06:19:56;;;;;;;18.30;5.93;;;7.70;90.50;;;;;;5004365;28;20489;-71
2023/12/16 06:22:22;;;;;;;17.02;7.05;;;7.70;90.40;;;;;;5000928;28;20391;-73
2023/12/16 06:24:47;;;;;;;16.27;5.82;;;7.70;90.40;;;;;;5002846;28;20450;-72
2023/12/16 06:27:13;;;;;;;16.73;5.55;;;7.70;90.40;;;;;;4996950;28;20041;-72
2023/12/16 06:29:39;;;;;;;19.80;5.88;;;7.70;90.50;;;;;;4999831;28;20101;-73
2023/12/16 06:32:05;;;;;;;17.90;5.75;;;7.80;90.50;;;;;;4998993;28;20100;-71
2023/12/16 06:34:31;;;;;;;18.92;6.03;;;7.80;90.50;;;;;;5001853;28;20703;-71
2023/12/16 06:36:56;;;;;;;17.83;6.20;;;7.80;90.50;;;;;;4983616;28;20433;-71
2023/12/16 06:39:22;;;;;;;26.35;6.40;;;7.90;90.50;;;;;;5000914;28;20046;-71
2023/12/16 06:41:48;;;;;;;21.80;6.40;;;7.90;90.50;;;;;;4996140;28;20040;-72
2023/12/16 06:44:14;;;;;;;18.98;6.00;;;7.90;90.70;;;;;;4996567;28;20021;-70
2023/12/16 06:46:39;;;;;;;21.60;6.65;;;7.90;90.60;;;;;;5002773;28;20077;-71
2023/12/16 06:49:05;;;;;;;17.92;5.90;;;8.00;90.60;;;;;;5004929;28;20041;-71
2023/12/16 06:51:31;;;;;;;19.58;6.40;;;8.00;90.60;;;;;;4997882;28;20034;-71
2023/12/16 06:53:56;;;;;;;20.42;5.72;;;8.10;90.50;;;;;;4998025;28;20025;-74
2023/12/16 06:56:22;;;;;;;14.80;4.90;;;8.00;90.50;;;;;;4978658;28;20062;-71
2023/12/16 06:58:47;;;;;;;15.57;5.40;;;8.10;90.50;;;;;;4993297;28;20525;-72
2023/12/16 07:01:14;;;;;;;21.27;6.47;;;8.10;90.50;;;;;;5001346;28;20514;-73
2023/12/16 07:03:39;;;;;;;19.10;5.47;;;8.10;90.40;;;;;;5003012;28;20017;-71
2023/12/16 07:06:06;;;;;;;15.30;4.70;;;8.20;90.50;;;;;;4977738;28;20046;-72
2023/12/16 07:08:31;;;;;;;23.10;6.18;;;8.10;90.40;;;;;;5002845;28;20064;-73
2023/12/16 07:10:58;;;;;;;17.25;5.35;;;8.20;90.40;;;;;;4997827;28;20375;-71
2023/12/16 07:13:24;;;;;;;22.35;5.43;;;8.20;90.40;;;;;;5003146;28;20459;-73
2023/12/16 07:15:50;;;;;;;17.50;5.47;;;8.20;90.40;;;;;;4999813;28;20045;-70
2023/12/16 07:18:15;;;;;;;16.85;5.28;;;8.20;90.50;;;;;;5003628;28;20037;-70
2023/12/16 07:20:41;;;;;;;15.13;5.03;;;8.20;90.50;;;;;;4996554;28;20030;-72
2023/12/16 07:23:07;;;;;;;18.23;5.88;;;8.20;90.60;;;;;;5004199;28;20094;-70
2023/12/16 07:25:33;;;;;;;17.48;6.38;;;8.20;90.60;;;;;;4997057;28;20065;-70
2023/12/16 07:27:58;;;;;;;16.27;5.63;;;8.30;90.60;;;;;;5001286;28;20708;-71
2023/12/16 07:30:24;;;;;;;15.20;5.30;;;8.30;90.60;;;;;;5004405;28;20117;-70
2023/12/16 07:32:50;;;;;;;21.58;6.38;;;8.30;90.60;;;;;;4982265;28;20395;-72
2023/12/16 07:35:15;;;;;;;20.35;6.20;;;8.30;90.70;;;;;;4997272;28;20137;-72
2023/12/16 07:37:42;;;;;;;19.98;5.95;;;8.40;90.80;;;;;;4991334;28;20068;-69
2023/12/16 07:40:09;;;;;;;15.68;5.82;;;8.40;90.70;;;;;;5000114;28;20356;-71
2023/12/16 07:42:39;;;;;;;20.75;5.72;;;8.40;90.70;;;;;;4996380;28;20030;-69
2023/12/16 07:45:06;;;;;;;18.48;5.53;;;8.40;90.70;;;;;;4987382;28;20113;-69
2023/12/16 07:47:32;;;;;;;21.40;6.30;;;8.50;90.70;;;;;;4999324;28;20028;-69
2023/12/16 07:49:58;;;;;;;22.15;6.30;;;8.50;90.80;;;;;;5001653;28;20113;-68
2023/12/16 07:52:24;;;;;;;18.05;5.65;;;8.50;90.70;;;;;;4969084;28;20067;-69
2023/12/16 07:54:50;;;;;;;17.77;5.10;;;8.50;90.80;;;;;;5000023;28;20068;-69
2023/12/16 07:57:16;;;;;;;19.73;6.35;;;8.60;90.80;;;;;;4996011;28;20036;-69
2023/12/16 07:59:42;;;;;;;22.88;5.90;;;8.60;90.70;;;;;;5000668;28;20030;-70
2023/12/16 08:02:08;;;;;;;21.38;5.25;;;8.60;90.80;;;;;;4997717;28;20121;-70
2023/12/16 08:04:35;;;;;;;16.23;5.30;;;8.60;90.80;;;;;;4999945;28;20030;-69
2023/12/16 08:07:01;;;;;;;16.75;5.82;;;8.60;90.80;;;;;;4996298;28;20030;-71
2023/12/16 08:09:28;;;;;;;17.63;6.05;;;8.70;90.90;;;;;;4985227;28;20536;-70
2023/12/16 08:11:58;;;;;;;15.40;5.40;;;8.70;90.80;;;;;;4997881;28;20052;-71
2023/12/16 08:14:30;;;;;;;20.55;5.60;;;8.80;91.00;;;;;;5002288;28;20482;-68
2023/12/16 08:16:56;;;;;;;19.33;5.43;;;8.80;91.00;;;;;;4978840;28;20374;-70
2023/12/16 08:19:22;;;;;;;19.02;5.90;;;8.80;91.00;;;;;;4994941;28;20026;-68
2023/12/16 08:21:48;;;;;;;22.70;5.55;;;8.80;91.10;;;;;;4999350;28;20046;-69
2023/12/16 08:24:14;;;;;;;24.95;6.68;;;8.90;91.10;;;;;;4997515;28;20026;-69
2023/12/16 08:26:39;;;;;;;19.30;5.43;;;8.90;91.20;;;;;;4995673;28;20030;-68
2023/12/16 08:29:05;;;;;;;18.35;6.28;;;8.90;91.10;;;;;;4999699;28;20030;-69
2023/12/16 08:31:30;;;;;;;20.52;5.85;;;9.00;91.20;;;;;;5001148;28;20077;-69
2023/12/16 08:33:56;;;;;;;22.77;6.95;;;9.00;91.20;;;;;;4983597;28;20038;-68
2023/12/16 08:36:22;;;;;;;18.10;6.07;;;9.10;91.10;;;;;;4997064;28;20046;-68
2023/12/16 08:38:47;;;;;;;21.38;7.05;;;9.10;91.10;;;;;;4999607;28;20134;-69
2023/12/16 08:41:14;;;;;;;16.60;7.15;;;9.10;91.10;;;;;;4972858;28;20463;-69
2023/12/16 08:43:41;;;;;;;16.05;5.68;;;9.10;91.00;;;;;;5004016;28;20095;-69
2023/12/16 08:46:07;;;;;;;21.10;6.88;;;9.10;91.00;;;;;;4994746;28;20046;-70
2023/12/16 08:48:34;;;;;;;21.05;6.55;;;9.10;90.90;;;;;;5001632;28;20137;-71
2023/12/16 08:51:00;;;;;;;20.17;6.53;;;9.10;90.90;;;;;;4977424;28;20495;-70
2023/12/16 08:53:26;;;;;;;21.25;6.57;;;9.20;90.90;;;;;;4994546;28;20056;-71
2023/12/16 08:55:52;;;;;;;23.00;6.45;;;9.10;90.80;;;;;;5004367;28;20042;-68
2023/12/16 08:58:18;;;;;;;18.42;5.65;;;9.20;90.90;;;;;;5003415;28;20550;-68
2023/12/16 09:00:43;;;;;;;20.33;7.18;;;9.20;90.80;;;;;;5008896;28;20478;-68
2023/12/16 09:03:09;;;;;;;24.55;8.90;;;9.30;90.80;;;;;;4985975;28;20386;-69
2023/12/16 09:05:36;;;;;;;19.83;7.45;;;9.40;90.70;;;;;;4999148;28;20328;-70
2023/12/16 09:08:02;;;;;;;24.60;8.27;;;9.40;90.60;;;;;;4984196;28;20027;-69
2023/12/16 09:10:29;;;;;;;18.35;6.88;;;9.40;90.50;;;;;;4997003;28;20049;-68
2023/12/16 09:12:54;;;;;;;21.55;7.28;;;9.40;90.50;;;;;;5004001;28;20029;-68
2023/12/16 09:15:20;;;;;;;24.48;8.15;;;9.40;90.50;;;;;;5005004;28;20045;-70
2023/12/16 09:17:47;;;;;;;22.65;8.32;;;9.50;90.50;;;;;;5002477;28;20365;-68
2023/12/16 09:20:13;;;;;;;22.45;7.38;;;9.50;90.50;;;;;;4999989;28;20079;-69
2023/12/16 09:22:39;;;;;;;19.77;6.90;;;9.50;90.50;;;;;;5000806;28;20058;-68
2023/12/16 09:25:06;;;;;;;23.13;6.93;;;9.60;90.70;;;;;;5001116;28;20044;-69
2023/12/16 09:27:32;;;;;;;18.20;6.45;;;9.60;90.60;;;;;;4992738;28;20549;-68
2023/12/16 09:29:57;;;;;;;20.60;7.53;;;9.60;90.60;;;;;;5001983;28;20034;-68
2023/12/16 09:32:23;;;;;;;22.38;7.30;;;9.70;90.60;;;;;;4999488;28;20037;-67
2023/12/16 09:34:49;;;;;;;25.20;7.70;;;9.70;90.50;;;;;;4998928;28;20049;-69
2023/12/16 09:37:15;;;;;;;21.27;7.22;;;9.70;90.50;;;;;;4976987;28;20060;-67
2023/12/16 09:39:41;;;;;;;25.83;10.93;;;9.80;90.50;;;;;;4981487;28;20026;-67
2023/12/16 09:42:07;;;;;;;23.80;11.70;;;9.80;90.50;;;;;;5007134;28;20033;-70
2023/12/16 09:44:39;;;;;;;27.92;8.63;;;9.80;90.50;;;;;;4999833;28;20088;-69
2023/12/16 09:47:05;;;;;;;30.38;6.85;;;9.80;90.50;;;;;;4994692;28;20287;-69
2023/12/16 09:49:31;;;;;;;26.83;8.10;;;9.90;90.50;;;;;;4997570;28;20019;-69
2023/12/16 09:51:57;;;;;;;23.65;7.72;;;10.00;90.40;;;;;;4987045;28;20034;-68
2023/12/16 09:54:23;;;;;;;21.45;7.10;;;10.00;90.40;;;;;;4996560;28;20083;-69
2023/12/16 09:56:49;;;;;;;21.35;7.75;;;10.00;90.40;;;;;;4996893;28;20041;-69
2023/12/16 09:59:20;;;;;;;28.42;7.80;;;10.00;90.50;;;;;;4995988;28;20093;-69
2023/12/16 10:01:52;;;;;;;26.02;7.75;;;10.10;90.50;;;;;;5000211;28;20034;-69
2023/12/16 10:04:19;;;;;;;19.40;6.53;;;10.10;90.40;;;;;;5002073;28;20084;-69
2023/12/16 10:06:45;;;;;;;25.80;6.40;;;10.10;90.50;;;;;;5003529;28;20034;-69
2023/12/16 10:09:11;;;;;;;28.25;6.78;;;10.10;90.40;;;;;;5005200;28;20026;-69
2023/12/16 10:11:40;;;;;;;22.23;6.93;;;10.10;90.40;;;;;;4984843;28;20548;-69
2023/12/16 10:14:06;;;;;;;20.42;6.47;;;10.20;90.40;;;;;;4998630;28;20056;-69
2023/12/16 10:16:32;;;;;;;22.70;6.65;;;10.20;90.40;;;;;;5001381;28;20077;-70
2023/12/16 10:18:58;;;;;;;20.98;6.93;;;10.20;90.30;;;;;;4996548;28;20056;-71
2023/12/16 10:21:29;;;;;;;19.33;6.82;;;10.30;90.30;;;;;;5002052;28;20062;-71
2023/12/16 10:24:02;;;;;;;18.40;6.25;;;10.40;90.30;;;;;;5002319;28;20459;-69
2023/12/16 10:26:33;;;;;;;22.45;6.85;;;10.40;90.10;;;;;;4984624;28;20483;-69
2023/12/16 10:29:04;;;;;;;19.02;6.90;;;10.50;90.10;;;;;;4984429;28;20112;-70
2023/12/16 10:31:29;;;;;;;23.85;6.25;;;10.50;90.20;;;;;;4982973;28;20034;-71
2023/12/16 10:33:55;;;;;;;22.60;6.78;;;10.50;90.10;;;;;;5001276;28;20025;-68
2023/12/16 10:36:21;;;;;;;21.40;6.63;;;10.50;90.00;;;;;;4997302;28;20053;-71
2023/12/16 10:38:47;;;;;;;19.40;6.53;;;10.50;90.20;;;;;;5005350;28;20450;-68
2023/12/16 10:41:13;;;;;;;23.98;7.45;;;10.50;90.30;;;;;;5004793;28;20603;-69
2023/12/16 10:43:39;;;;;;;19.75;6.43;;;10.50;90.30;;;;;;5001575;28;20038;-71
2023/12/16 10:46:06;;;;;;;16.50;5.95;;;10.60;90.30;;;;;;5005043;28;20026;-71
2023/12/16 10:48:36;;;;;;;20.42;5.72;;;10.60;90.30;;;;;;4998984;28;20034;-72
2023/12/16 10:51:03;;;;;;;19.90;7.20;;;10.60;90.30;;;;;;5002843;28;20457;-71
2023/12/16 10:53:40;;;;;;;21.85;6.93;;;10.70;90.20;;;;;;5006974;28;20029;-68
2023/12/16 10:56:28;;;;;;;18.20;6.50;;;10.70;90.10;;;;;;5004404;28;20470;-69
2023/12/16 10:59:04;;;;;;;21.02;7.72;;;10.70;90.20;;;;;;5003551;28;20029;-72
2023/12/16 11:01:34;;;;;;;23.35;7.63;;;10.70;90.40;;;;;;4983813;28;20434;-69
2023/12/16 11:04:19;;;;;;;28.77;7.60;;;10.70;90.50;;;;;;5001337;28;20865;-69
2023/12/16 11:07:10;;;;;;;23.55;6.93;;;10.70;90.60;;;;;;4998787;28;20048;-69
2023/12/16 11:09:36;;;;;;;22.60;6.82;;;10.80;90.50;;;;;;5001378;28;20025;-71
2023/12/16 11:12:03;;;;;;;27.58;6.60;;;10.80;90.40;;;;;;5001814;28;20053;-70
2023/12/16 11:14:31;;;;;;;19.52;6.70;;;10.90;90.50;;;;;;5000901;28;20038;-68
2023/12/16 11:17:43;;;;;;;25.27;7.22;;;10.90;90.50;;;;;;5006081;28;20042;-69
2023/12/16 11:20:16;;;;;;;25.85;7.35;;;10.90;90.50;;;;;;4970396;28;20043;-72
2023/12/16 11:22:49;;;;;;;23.77;6.93;;;10.80;90.60;;;;;;4998381;28;20136;-69
2023/12/16 11:25:20;;;;;;;21.55;6.80;;;10.90;90.50;;;;;;4999669;28;20034;-72
2023/12/16 11:27:52;;;;;;;24.35;7.28;;;10.90;90.40;;;;;;4983746;28;20061;-69
2023/12/16 11:30:22;;;;;;;25.27;8.50;;;10.90;90.60;;;;;;5003034;28;20034;-70
2023/12/16 11:32:55;;;;;;;28.27;8.77;;;10.90;90.60;;;;;;4977585;28;20101;-69
2023/12/16 11:35:36;;;;;;;30.88;9.25;;;10.90;90.70;;;;;;4999145;28;20045;-67
2023/12/16 11:38:02;;;;;;;36.13;16.60;;;10.90;90.70;;;;;;4999670;28;20029;-68
2023/12/16 11:40:42;;;;;;;35.45;15.20;;;10.90;90.70;;;;;;5000983;28;20037;-71
2023/12/16 11:43:09;;;;;;;25.45;10.70;;;10.90;90.80;;;;;;5000291;28;20430;-72
2023/12/16 11:45:46;;;;;;;21.38;6.95;;;10.90;90.90;;;;;;5000012;28;20030;-68
2023/12/16 11:48:14;;;;;;;20.15;6.82;;;10.90;90.90;;;;;;4999383;28;20045;-68
2023/12/16 11:50:41;;;;;;;23.33;7.07;;;10.90;91.10;;;;;;4998658;28;20041;-69
2023/12/16 11:53:10;;;;;;;18.02;7.15;;;11.00;91.10;;;;;;5001268;28;20160;-71
2023/12/16 11:55:37;;;;;;;25.88;6.47;;;11.00;91.00;;;;;;4998702;28;20473;-70
2023/12/16 11:58:03;;;;;;;22.67;6.85;;;11.00;91.00;;;;;;4994873;28;20017;-69
2023/12/16 12:00:29;;;;;;;26.25;7.20;;;11.00;91.00;;;;;;4992771;28;20080;-72
2023/12/16 12:02:56;;;;;;;24.73;6.47;;;11.00;90.90;;;;;;5004766;28;20030;-69
2023/12/16 12:05:22;;;;;;;21.08;7.05;;;11.00;91.00;;;;;;4985673;28;20199;-68
2023/12/16 12:07:48;;;;;;;21.00;7.47;;;11.00;91.00;;;;;;4984993;28;20629;-71
2023/12/16 12:10:14;;;;;;;20.77;6.60;;;11.00;91.00;;;;;;5003246;28;20058;-69
2023/12/16 12:12:39;;;;;;;17.60;5.75;;;11.10;91.00;;;;;;4997187;28;20460;-72
2023/12/16 12:15:08;;;;;;;16.55;5.90;;;11.10;90.80;;;;;;5000436;28;20046;-68
2023/12/16 12:17:34;;;;;;;22.40;6.97;;;11.10;90.90;;;;;;4999336;28;20038;-69
2023/12/16 12:20:00;;;;;;;22.45;6.63;;;11.10;91.00;;;;;;4983062;28;20038;-69
2023/12/16 12:22:25;;;;;;;22.17;7.25;;;11.10;91.00;;;;;;4996703;28;20045;-69
2023/12/16 12:24:53;;;;;;;19.88;7.03;;;11.10;91.00;;;;;;5001978;28;20502;-68
2023/12/16 12:27:19;;;;;;;19.35;6.88;;;11.10;91.00;;;;;;5002789;28;20498;-72
2023/12/16 12:30:04;;;;;;;21.45;6.68;;;11.00;91.10;;;;;;4986511;28;20393;-69
2023/12/16 12:32:31;;;;;;;34.17;7.35;;;11.10;91.30;;;;;;5004195;28;20536;-71
2023/12/16 12:35:07;;;;;;;23.45;7.32;;;11.10;91.30;;;;;;5004618;28;20041;-70
2023/12/16 12:37:38;;;;;;;21.17;6.53;;;11.10;91.30;;;;;;4977862;28;20406;-68
2023/12/16 12:40:14;;;;;;;24.70;6.97;;;11.10;91.40;;;;;;4998504;28;20432;-72
2023/12/16 12:42:50;;;;;;;20.73;6.60;;;11.10;91.60;;;;;;5003982;28;20274;-71